FIMPFSIA

Guest
Details From FIMP - Sir Seewoosagur Ramgoolam Intl
To FSIA - Seychelles Intl
Flight Number -
Tags Generated
Created
Modified
Stats Distance 955 nm / 1,769 km
Max Altitude 0 ft / 0 m
Waypoints 3
Social Downloads 3
Likes 0
Share VATSIM

Download

Looking for another format? Having issues loading an existing format? Contact us
Advertisement - Login to hide

Notes

Generated

Route

FIMP R1305 FSIA

ID Type Via Altitude Latitude Longitude Leg Dist Tot Dist Heading (true) Name
O FIMP APT - 0 ft / 0 m -20.42332˚ 57.66925˚ - 0 nm - -
R1305 FIX - 0 ft / 0 m -4.68054˚ 55.53061˚ 953 nm 953 nm 352° / 353° -
O FSIA APT - 0 ft / 0 m -4.66663˚ 55.51080˚ 1 nm 955 nm 305° / 305° -

Altitude Profile

Advertisement - Login to hide

Weather


0- 5 10 15 20 25 30 35+ Temperature / ° C

Clouds and Precipitation
Forecast for 2018-05-21 18:00 UTC. Updated 4 hours ago

Ground ~20,000 ft ~40,000 ft Winds

FIMP

Details ICAO FIMP (MRU)
Name SIR SEEWOOSAGUR RAMGOOLAM INTL
Region Mauritius
Timezone Indian/Mauritius (UTC+4.0)
Stats Elevation 186 ft / 57 m (AMSL)
Location -20.430235° 57.683602°
Runways 1
Magnetic Variation 18.389° W

METAR

FIMP 212100Z 12015KT 9999 SCT015 25/19 Q1019

Decode

TAF

TAF FIMP 211715Z 2118/2300 12013G25KT 9999 SCT015 TEMPO 2118/2209 7000 -SHRA FEW010 BKN014 BKN050

Decode

Departure Runways

ID Width Length Bearing (true) Bearing (mag) Surface Threshold Offset Overrun Length
14 148 ft / 45 m 11,037 ft / 3,364 m 117.22° 135.61° Asphalt 1,082 ft / 330 m 200 ft / 61 m
32 148 ft / 45 m 11,037 ft / 3,364 m 297.21° 315.60° Asphalt 0 ft / 0 m 0 ft / 0 m

FSIA

Details ICAO FSIA (SEZ)
Name SEYCHELLES INTL
Region Seychelles
Timezone Unknown (UTC+0.0)
Stats Elevation 10 ft / 3 m (AMSL)
Location -4.674378° 55.521829°
Runways 1
Magnetic Variation 5.030° W

METAR

FSIA 212100Z AUTO 16006KT 120V220 //// R13///// // NCD 27/24 Q1010

Decode

TAF

TAF FSIA 211700Z 2118/2218 15015KT 9999 SCT020 PROB40 TEMPO 2122/2202 -SHRA BKN018

Decode

Destination Runways

ID Width Length Bearing (true) Bearing (mag) Surface Threshold Offset Overrun Length
13 151 ft / 46 m 9,813 ft / 2,991 m 125.18° 130.21° Concrete 1,001 ft / 305 m 279 ft / 85 m
31 151 ft / 46 m 9,813 ft / 2,991 m 305.18° 310.21° Concrete 1,001 ft / 305 m 115 ft / 35 m

Approach Navaids

Runway Type Ident Frequency Range Bearing (true) Bearing (mag) Slope Elevation
31 Localiser SIA 110.30 MHz 18 nm / 33 km 305.21° 310.24° - 10 ft / 3 m (AMSL)
31 Glidescope SIA 110.30 MHz 10 nm / 19 km 305.18° 310.21° 3.00° 10 ft / 3 m (AMSL)
31 DME SIA 110.30 MHz 18 nm / 33 km - - - 10 ft / 3 m (AMSL)

Popular Alternatives